Flugplatz Nordholz Navy (ETMN)

Hier findest Du alle Informationen zum Flugplatz Nordholz Navy (ETMN).

Informationen für Piloten zum Flugplatz Nordholz Navy

Hier findest Du alle relevanten Informationen, die Du als Pilot benötigst, um Nordholz Navy anzufliegen.

Flugplatz: Nordholz Navy ICAO-Code: ETMN
Frequenz Turm: 131,250 Mhz GAFOR Gebiet: 5
Frequenz Ground: 131,250 Mhz Mogas: nein
Platzrunde: - Landegebühr: -
Platzhöhe: - Sunrise: 03:02 Uhr UTC
Pisten: 08/26 - 2.439 m x , BIT Sunset: 19:58 Uhr UTC

Flugwetter am Flugplatz Nordholz Navy

Die METAR Information stammen aus EDDW (80.58 km entfernt).

METAR Code:
2022/07/06 14:50
EDDW 061450Z AUTO 31011KT CAVOK 20/07 Q1022 NOSIG

Temperatur: 16,1 °C Niederschlag: - Wind: 20,0 kt (max.: 30,0 kt in Böen)
Temperatur (min.): 15,5 °C Luftdruck: 1021 hPa Windrichtung: 320 °
Temperatur (max.): 16,6 °C Luftfeuchtigkeit: 67 % Bewölkung: 6/8

Flugschulen am Flugplatz Nordholz Navy

Am Flugplatz Nordholz Navy gibt es leider keine Flugschule.

Benachbarte Flugplätze und Flugschulen

Es gibt 8 weitere Flugplätze in einem Umkreis von 50 km um den Flugplatz Nordholz Navy.

Jetzt anmelden

Passwort vergessen

Umfrage Archiv

Sendet Ihr ADS-B und/oder FLARM?

Ja
83.3 %
Nein
16.7 %
Stimmen: 180 | Diskussion
Anzeige: Roland Aircraft
Statistik Alle Mitglieder

Aktuell sind 64 Besucher online, davon 4 Mitglieder und 60 Gäste.


Mitglieder online:
TomHeuer  BravoEcho  Heli  fly96 

Anzeige: ULPower Aero Engines Anzeige: Pocket FMS